Airport View

Enter AWOS ICAO identifier for current METAR.

ex. KFNL

KBID 100256Z AUTO 00000KT 10SM CLR 22/21 A3003 RMK AO2 SLP167 T02170211 53000

10 Jul 2020 03:52

Frequency: 134.775

Phone: 401-466-5495

Other Area AWOS: KWST - KMTP - KGON - KUUU

TAF AMD KGON 100251Z 1003/1024 15003KT P6SM FEW003 SCT250 FM100500 09004KT 1SM BR OVC003 FM101300 09010KT 5SM BR VCSH BKN008 OVC015 FM101700 09013G20KT 3SM SHRA BR SCT008 OVC015 PROB30 1020/1023 1SM +TSRA BKN008 OVC015CB FM102300 11014G21KT 3SM SHRA BR BKN008 OVC015